• Join FlightAware (Why Join?)
  • Login
  • US Flag 
06:29AM EDT


 

Airport Tracker/Info


-or-


 

Live Flight TrackerFlight Track Log ✈ DAL6067 ✈ 21-May-2013 ✈ KBGR - KLGA

Flight Track Log - Related Links

Times and Time Zones

All times are in EDT time to prevent confusion due to time zone crossing. See the DAL6067 flight status page for this flight to view local times or setup timezone preferences in your user account.

Time Position Orientation Groundspeed Altitude Reporting Facility
EDT Latitude Longitude Course Direction KTS MPH feet Rate Location/Type
06:15AM 44.7461 -68.8156 241° Southwest 237 273 3,300  Level Boston Center
06:16AM 44.7239 -68.9047 251° West 250 288 6,100 2,520 Climbing Boston Center
06:17AM 44.7196 -69.1470 215° Southwest  Level FlightAware Approximate
06:17AM 44.6975 -68.9939 247° West 256 295 8,400  Level Boston Center
06:18AM 44.6723 -69.2611 241° Southwest  Level FlightAware Approximate
06:18AM 44.6708 -69.0858 248° West 256 295 11,000  Level Boston Center
06:19AM 44.6293 -69.3788 245° Southwest  Level FlightAware Approximate
06:19AM 44.6425 -69.1867 248° West 261 300 12,400  Level Boston Center
06:20AM 44.5894 -69.4986 245° Southwest  Level FlightAware Approximate
06:20AM 44.6139 -69.2817 247° West 274 315 13,600  Level Boston Center
06:21AM 44.5443 -69.6146 241° Southwest  Level FlightAware Approximate
06:21AM 44.5836 -69.3942 249° West 296 341 15,100  Level Boston Center
06:22AM 44.5492 -69.5094 247° West 307 353 16,600 1,260 Climbing Boston Center
06:24AM 44.5167 -69.6247 248° West 318 366 18,000 1,440 Climbing Boston Center
06:25AM 44.4781 -69.7633 249° West 318 366 19,800 1,620 Climbing Boston Center
06:26AM 44.4433 -69.8783 247° West 318 366 21,300 1,500 Climbing Boston Center
06:27AM 44.3978 -69.9936 241° Southwest 323 372 22,800 1,500 Climbing Boston Center
06:28AM 44.3522 -70.1058 240° Southwest 330 380 24,300 1,500 Climbing Boston Center
06:29AM 44.3067 -70.2178 240° Southwest 335 386 25,800 1,500 Climbing Boston Center
06:30AM 44.2608 -70.3297 240° Southwest 340 391 27,300 1,440 Climbing Boston Center
06:31AM 44.2108 -70.4503 240° Southwest 340 391 28,700 1,440 Climbing Boston Center
06:32AM 44.1647 -70.5619 240° Southwest 340 391 30,200 1,500 Climbing Boston Center
06:33AM 44.1206 -70.6703 240° Southwest 340 391 31,700 1,440 Climbing Boston Center
06:34AM 44.0744 -70.7814 240° Southwest 340 391 33,100 1,140 Climbing Boston Center
06:35AM 44.0278 -70.8894 239° Southwest 340 391 34,000 420 Climbing Boston Center
06:36AM 43.9794 -71.0033 239° Southwest 345 397 34,000  Level Boston Center
06:37AM 43.9267 -71.1314 240° Southwest 364 419 34,000  Level Boston Center
06:38AM 43.8719 -71.2650 240° Southwest 387 445 34,000  Level Boston Center
06:39AM 43.8128 -71.4072 240° Southwest 413 475 34,000  Level Boston Center
06:40AM 43.7639 -71.5144 238° Southwest 419 482 34,000  Level Boston Center
06:41AM 43.7025 -71.6647 241° Southwest 419 482 34,000  Level Boston Center
06:42AM 43.6447 -71.7975 239° Southwest 419 482 34,000  Level Boston Center
06:43AM 43.5872 -71.9328 240° Southwest 419 482 34,000  Level Boston Center
06:44AM 43.5314 -72.0650 240° Southwest 413 475 34,000  Level Boston Center
06:45AM 43.4714 -72.1969 238° Southwest 413 475 34,000 -420 Level Boston Center
06:46AM 43.4153 -72.3286 240° Southwest 408 470 33,200 -960 Descending Boston Center
06:47AM 43.3569 -72.4600 239° Southwest 408 470 32,100 -1,080 Descending Boston Center
06:48AM 43.2964 -72.5969 239° Southwest 413 475 31,100 -1,020 Descending Boston Center
06:49AM 43.2358 -72.7364 239° Southwest 418 481 30,100 -600 Descending Boston Center
06:50AM 43.1747 -72.8728 238° Southwest 418 481 30,000 -240 Descending Boston Center
06:51AM 43.1158 -73.0033 238° Southwest 418 481 29,700 -660 Descending Boston Center
06:52AM 43.0547 -73.1392 238° Southwest 418 481 28,700 -960 Descending Boston Center
06:53AM 42.9892 -73.2803 238° Southwest 428 493 27,800 -1,020 Descending Boston Center
06:54AM 42.9214 -73.4183 236° Southwest 428 493 26,700 -960 Descending Boston Center
06:55AM 42.8556 -73.5644 238° Southwest 428 493 25,900 -1,200 Descending Boston Center
06:56AM 42.8083 -73.6825 241° Southwest 423 487 24,300 -1,620 Descending Boston Center
06:57AM 42.7136 -73.7767 216° Southwest 411 473 22,700 -1,200 Descending Boston Center
06:58AM 42.5900 -73.8164 193° South 405 466 22,000 -780 Descending Boston Center
06:59AM 42.4825 -73.7575 158° South 393 452 21,200 -960 Descending Boston Center
07:00AM 42.3658 -73.7328 171° South 406 467 20,100 -1,140 Descending Boston Center
07:01AM 42.2350 -73.7047 171° South 429 494 19,000 -600 Descending Boston Center
07:02AM 42.1225 -73.7025 179° South 421 484 19,000  Level Boston Center
07:03AM 42.0203 -73.7144 185° South 413 475 19,000 -240 Level Boston Center
07:04AM 41.8969 -73.7286 185° South 413 475 18,600 -600 Descending Boston Center
07:05AM 41.8072 -73.7408 186° South 389 448 17,700 -1,020 Descending Boston Center
07:06AM 41.6967 -73.7553 186° South 340 391 16,400 -1,260 Descending Boston Center
07:07AM 41.6028 -73.7728 188° South 327 376 15,200 -1,560 Descending Boston Center
07:08AM 41.5333 -73.8167 205° Southwest 308 354 13,300 -1,920 Descending New York TRACON
07:09AM 41.4500 -73.8500 197° South 310 357 11,400 -1,800 Descending New York TRACON
07:10AM 41.3667 -73.8167 163° South 287 330 9,700 -1,920 Descending New York TRACON
07:11AM 41.3000 -73.7500 143° Southeast 292 336 7,400 -1,980 Descending New York TRACON
07:12AM 41.2333 -73.7000 151° Southeast 288 331 5,600 -1,740 Descending New York TRACON
07:13AM 41.1667 -73.6833 169° South 267 307 4,100 -780 Descending New York TRACON
07:14AM 41.0833 -73.6667 171° South 248 285 4,100  Level New York TRACON
07:15AM 41.0333 -73.6667 180° South 212 244 4,100  Level New York TRACON
07:16AM 40.9833 -73.6500 166° South 201 231 4,100  Level New York TRACON
07:17AM 40.9500 -73.6833 217° Southwest 197 227 4,100 -240 Level New York TRACON
07:18AM 40.9333 -73.7500 252° West 160 184 3,700 -660 Descending New York TRACON
07:19AM 40.9000 -73.7833 217° Southwest 164 189 2,800 -1,020 Descending New York TRACON
07:20AM 40.8667 -73.8000 201° Southwest 157 181 1,800 -900 Descending New York TRACON
07:21AM 40.8333 -73.8333 217° Southwest 137 158 1,100 -720 Descending New York TRACON